sensor_id;sensor_type;location;lat;lon;timestamp;pressure;altitude;pressure_sealevel;temperature;humidity
51245;BME280;37840;47.562;18.738;2023-04-10T00:01:46;100491.31;;;4.20;79.28
51245;BME280;37840;47.562;18.738;2023-04-10T00:04:12;100487.94;;;4.16;79.24
51245;BME280;37840;47.562;18.738;2023-04-10T00:06:38;100478.63;;;4.06;79.02
51245;BME280;37840;47.562;18.738;2023-04-10T00:09:06;100484.47;;;3.87;79.51
51245;BME280;37840;47.562;18.738;2023-04-10T00:11:32;100482.06;;;3.80;79.40
51245;BME280;37840;47.562;18.738;2023-04-10T00:13:58;100476.44;;;3.64;79.91
51245;BME280;37840;47.562;18.738;2023-04-10T00:16:23;100475.03;;;3.52;80.47
51245;BME280;37840;47.562;18.738;2023-04-10T00:18:49;100480.44;;;3.18;81.59
51245;BME280;37840;47.562;18.738;2023-04-10T00:21:15;100473.00;;;3.32;81.26
51245;BME280;37840;47.562;18.738;2023-04-10T00:23:44;100467.81;;;3.29;81.27
51245;BME280;37840;47.562;18.738;2023-04-10T00:26:10;100464.34;;;3.29;81.36
51245;BME280;37840;47.562;18.738;2023-04-10T00:28:36;100464.53;;;3.22;80.91
51245;BME280;37840;47.562;18.738;2023-04-10T00:31:05;100457.72;;;3.15;81.22
51245;BME280;37840;47.562;18.738;2023-04-10T00:33:31;100457.56;;;3.21;81.03
51245;BME280;37840;47.562;18.738;2023-04-10T00:35:57;100461.22;;;3.16;81.52
51245;BME280;37840;47.562;18.738;2023-04-10T00:38:22;100457.59;;;3.20;81.15
51245;BME280;37840;47.562;18.738;2023-04-10T00:40:48;100465.50;;;3.18;80.92
51245;BME280;37840;47.562;18.738;2023-04-10T00:43:15;100455.31;;;3.08;81.04
51245;BME280;37840;47.562;18.738;2023-04-10T00:45:41;100461.38;;;3.10;81.69
51245;BME280;37840;47.562;18.738;2023-04-10T00:48:07;100460.50;;;3.11;80.99
51245;BME280;37840;47.562;18.738;2023-04-10T00:50:32;100453.44;;;3.13;81.07
51245;BME280;37840;47.562;18.738;2023-04-10T00:52:58;100458.75;;;3.10;82.17
51245;BME280;37840;47.562;18.738;2023-04-10T00:55:24;100456.88;;;3.15;82.15
51245;BME280;37840;47.562;18.738;2023-04-10T00:57:50;100453.38;;;3.14;82.10
51245;BME280;37840;47.562;18.738;2023-04-10T01:00:19;100449.75;;;3.18;81.82
51245;BME280;37840;47.562;18.738;2023-04-10T01:02:44;100452.38;;;3.18;82.05
51245;BME280;37840;47.562;18.738;2023-04-10T01:05:10;100449.88;;;3.14;82.27
51245;BME280;37840;47.562;18.738;2023-04-10T01:15:35;100441.97;;;3.15;82.03
51245;BME280;37840;47.562;18.738;2023-04-10T01:18:12;100441.94;;;3.17;81.75
51245;BME280;37840;47.562;18.738;2023-04-10T01:20:39;100444.72;;;3.11;81.58
51245;BME280;37840;47.562;18.738;2023-04-10T01:25:45;100441.16;;;3.13;82.39
51245;BME280;37840;47.562;18.738;2023-04-10T01:30:45;100448.00;;;3.19;83.68
51245;BME280;37840;47.562;18.738;2023-04-10T01:33:12;100448.22;;;3.11;83.84
51245;BME280;37840;47.562;18.738;2023-04-10T01:35:40;100441.94;;;3.17;83.92
51245;BME280;37840;47.562;18.738;2023-04-10T01:38:07;100442.00;;;3.14;83.68
51245;BME280;37840;47.562;18.738;2023-04-10T01:40:35;100434.97;;;3.14;83.96
51245;BME280;37840;47.562;18.738;2023-04-10T01:43:03;100447.13;;;3.18;84.38
51245;BME280;37840;47.562;18.738;2023-04-10T01:45:30;100439.34;;;3.15;84.26
51245;BME280;37840;47.562;18.738;2023-04-10T01:47:56;100434.94;;;3.16;84.18
51245;BME280;37840;47.562;18.738;2023-04-10T01:50:22;100434.22;;;3.11;84.42
51245;BME280;37840;47.562;18.738;2023-04-10T01:52:49;100434.38;;;3.06;84.65
51245;BME280;37840;47.562;18.738;2023-04-10T01:55:15;100444.88;;;3.06;84.81
51245;BME280;37840;47.562;18.738;2023-04-10T01:57:40;100445.59;;;3.11;85.18
51245;BME280;37840;47.562;18.738;2023-04-10T02:00:06;100441.00;;;3.18;85.49
51245;BME280;37840;47.562;18.738;2023-04-10T02:02:33;100443.59;;;3.19;85.33
51245;BME280;37840;47.562;18.738;2023-04-10T02:04:59;100436.53;;;3.21;85.22
51245;BME280;37840;47.562;18.738;2023-04-10T02:12:21;100425.88;;;3.26;85.48
51245;BME280;37840;47.562;18.738;2023-04-10T02:14:48;100428.50;;;3.26;85.85
51245;BME280;37840;47.562;18.738;2023-04-10T02:17:15;100434.63;;;3.26;86.11
51245;BME280;37840;47.562;18.738;2023-04-10T02:19:42;100429.47;;;3.23;85.84
51245;BME280;37840;47.562;18.738;2023-04-10T02:22:10;100427.97;;;3.15;85.01
51245;BME280;37840;47.562;18.738;2023-04-10T02:24:36;100430.63;;;3.13;85.34
51245;BME280;37840;47.562;18.738;2023-04-10T02:27:02;100432.22;;;3.19;85.64
51245;BME280;37840;47.562;18.738;2023-04-10T02:29:27;100432.81;;;3.29;86.65
51245;BME280;37840;47.562;18.738;2023-04-10T02:31:53;100429.12;;;3.34;87.07
51245;BME280;37840;47.562;18.738;2023-04-10T02:34:19;100435.22;;;3.36;87.75
51245;BME280;37840;47.562;18.738;2023-04-10T02:36:45;100436.94;;;3.36;89.22
51245;BME280;37840;47.562;18.738;2023-04-10T02:39:10;100426.25;;;3.42;89.00
51245;BME280;37840;47.562;18.738;2023-04-10T02:41:36;100424.09;;;3.55;89.33
51245;BME280;37840;47.562;18.738;2023-04-10T02:44:02;100425.53;;;3.65;89.65
51245;BME280;37840;47.562;18.738;2023-04-10T02:46:27;100421.91;;;3.69;90.08
51245;BME280;37840;47.562;18.738;2023-04-10T02:48:53;100420.88;;;3.75;90.16
51245;BME280;37840;47.562;18.738;2023-04-10T02:51:19;100416.47;;;3.75;89.76
51245;BME280;37840;47.562;18.738;2023-04-10T02:53:46;100412.03;;;3.76;89.55
51245;BME280;37840;47.562;18.738;2023-04-10T02:56:12;100411.91;;;3.80;89.41
51245;BME280;37840;47.562;18.738;2023-04-10T02:58:38;100413.44;;;3.87;89.67
51245;BME280;37840;47.562;18.738;2023-04-10T03:01:07;100423.16;;;3.85;89.31
51245;BME280;37840;47.562;18.738;2023-04-10T03:03:32;100428.28;;;3.34;87.26
51245;BME280;37840;47.562;18.738;2023-04-10T03:05:58;100424.09;;;3.26;89.01
51245;BME280;37840;47.562;18.738;2023-04-10T03:08:24;100419.47;;;3.35;88.53
51245;BME280;37840;47.562;18.738;2023-04-10T03:10:49;100422.63;;;3.46;87.70
51245;BME280;37840;47.562;18.738;2023-04-10T03:13:15;100408.44;;;3.52;87.46
51245;BME280;37840;47.562;18.738;2023-04-10T03:15:41;100411.91;;;3.52;87.55
51245;BME280;37840;47.562;18.738;2023-04-10T03:18:07;100414.50;;;3.54;87.60
51245;BME280;37840;47.562;18.738;2023-04-10T03:20:36;100413.81;;;3.49;87.90
51245;BME280;37840;47.562;18.738;2023-04-10T03:23:04;100406.97;;;3.43;88.38
51245;BME280;37840;47.562;18.738;2023-04-10T03:25:30;100411.28;;;3.44;88.58
51245;BME280;37840;47.562;18.738;2023-04-10T03:27:58;100410.97;;;3.55;88.40
51245;BME280;37840;47.562;18.738;2023-04-10T03:30:23;100416.03;;;3.61;87.96
51245;BME280;37840;47.562;18.738;2023-04-10T03:32:49;100417.78;;;3.62;87.98
51245;BME280;37840;47.562;18.738;2023-04-10T03:35:15;100421.28;;;3.61;88.23
51245;BME280;37840;47.562;18.738;2023-04-10T03:37:41;100417.72;;;3.63;87.90
51245;BME280;37840;47.562;18.738;2023-04-10T03:40:07;100414.22;;;3.63;87.54
51245;BME280;37840;47.562;18.738;2023-04-10T03:42:33;100418.62;;;3.62;87.57
51245;BME280;37840;47.562;18.738;2023-04-10T03:44:59;100416.81;;;3.64;87.77
51245;BME280;37840;47.562;18.738;2023-04-10T03:47:27;100414.16;;;3.64;87.65
51245;BME280;37840;47.562;18.738;2023-04-10T03:49:52;100416.69;;;3.67;87.91
51245;BME280;37840;47.562;18.738;2023-04-10T03:52:19;100416.63;;;3.71;87.92
51245;BME280;37840;47.562;18.738;2023-04-10T03:54:44;100414.47;;;3.55;88.25
51245;BME280;37840;47.562;18.738;2023-04-10T03:57:10;100421.69;;;3.49;88.06
51245;BME280;37840;47.562;18.738;2023-04-10T03:59:36;100424.94;;;3.27;87.46
51245;BME280;37840;47.562;18.738;2023-04-10T04:02:01;100421.62;;;3.22;87.55
51245;BME280;37840;47.562;18.738;2023-04-10T04:04:27;100425.56;;;3.07;88.18
51245;BME280;37840;47.562;18.738;2023-04-10T04:06:55;100425.19;;;3.19;88.19
51245;BME280;37840;47.562;18.738;2023-04-10T04:09:21;100431.16;;;3.24;88.55
51245;BME280;37840;47.562;18.738;2023-04-10T04:11:46;100427.59;;;3.27;88.20
51245;BME280;37840;47.562;18.738;2023-04-10T04:14:12;100432.72;;;3.32;87.97
51245;BME280;37840;47.562;18.738;2023-04-10T04:16:38;100433.84;;;3.23;88.22
51245;BME280;37840;47.562;18.738;2023-04-10T04:19:04;100436.06;;;3.07;88.32
51245;BME280;37840;47.562;18.738;2023-04-10T04:21:29;100431.50;;;3.14;88.75
51245;BME280;37840;47.562;18.738;2023-04-10T04:23:55;100425.25;;;3.18;88.43
51245;BME280;37840;47.562;18.738;2023-04-10T04:26:21;100435.47;;;3.27;87.66
51245;BME280;37840;47.562;18.738;2023-04-10T04:28:49;100437.28;;;3.25;87.04
51245;BME280;37840;47.562;18.738;2023-04-10T04:31:15;100433.97;;;3.18;86.98
51245;BME280;37840;47.562;18.738;2023-04-10T04:33:41;100440.00;;;3.22;86.04
51245;BME280;37840;47.562;18.738;2023-04-10T04:36:06;100435.66;;;3.21;85.75
51245;BME280;37840;47.562;18.738;2023-04-10T04:38:32;100434.78;;;3.20;85.87
51245;BME280;37840;47.562;18.738;2023-04-10T04:40:58;100440.16;;;3.17;85.96
51245;BME280;37840;47.562;18.738;2023-04-10T04:43:24;100436.56;;;3.20;86.13
51245;BME280;37840;47.562;18.738;2023-04-10T04:45:49;100437.50;;;3.19;86.16
51245;BME280;37840;47.562;18.738;2023-04-10T04:48:15;100434.72;;;3.23;86.24
51245;BME280;37840;47.562;18.738;2023-04-10T04:50:41;100442.34;;;3.31;86.36
51245;BME280;37840;47.562;18.738;2023-04-10T04:53:09;100448.56;;;3.29;86.04
51245;BME280;37840;47.562;18.738;2023-04-10T04:55:35;100452.72;;;3.36;85.98
51245;BME280;37840;47.562;18.738;2023-04-10T04:58:01;100454.44;;;3.38;85.76
51245;BME280;37840;47.562;18.738;2023-04-10T05:00:26;100456.63;;;3.52;85.63
51245;BME280;37840;47.562;18.738;2023-04-10T05:02:56;100454.03;;;3.51;85.91
51245;BME280;37840;47.562;18.738;2023-04-10T05:05:22;100458.25;;;3.56;86.04
51245;BME280;37840;47.562;18.738;2023-04-10T05:07:47;100458.88;;;3.64;86.21
51245;BME280;37840;47.562;18.738;2023-04-10T05:10:13;100466.59;;;3.71;87.10
51245;BME280;37840;47.562;18.738;2023-04-10T05:12:39;100462.75;;;3.81;88.20
51245;BME280;37840;47.562;18.738;2023-04-10T05:15:06;100467.06;;;4.10;88.22
51245;BME280;37840;47.562;18.738;2023-04-10T05:17:32;100468.78;;;4.38;87.75
51245;BME280;37840;47.562;18.738;2023-04-10T05:19:57;100471.59;;;4.58;87.33
51245;BME280;37840;47.562;18.738;2023-04-10T05:22:23;100467.47;;;4.76;87.01
51245;BME280;37840;47.562;18.738;2023-04-10T05:24:49;100461.81;;;4.87;86.71
51245;BME280;37840;47.562;18.738;2023-04-10T05:27:15;100466.75;;;4.96;86.48
51245;BME280;37840;47.562;18.738;2023-04-10T05:29:41;100466.47;;;5.04;86.40
51245;BME280;37840;47.562;18.738;2023-04-10T05:32:07;100470.19;;;5.22;86.60
51245;BME280;37840;47.562;18.738;2023-04-10T05:34:32;100471.53;;;5.10;87.68
51245;BME280;37840;47.562;18.738;2023-04-10T05:36:58;100473.09;;;5.14;87.47
51245;BME280;37840;47.562;18.738;2023-04-10T05:39:24;100468.31;;;5.25;87.50
51245;BME280;37840;47.562;18.738;2023-04-10T05:41:49;100470.41;;;5.39;87.84
51245;BME280;37840;47.562;18.738;2023-04-10T05:44:15;100476.16;;;5.50;88.27
51245;BME280;37840;47.562;18.738;2023-04-10T05:46:41;100475.66;;;5.63;88.53
51245;BME280;37840;47.562;18.738;2023-04-10T05:49:06;100472.94;;;5.88;87.62
51245;BME280;37840;47.562;18.738;2023-04-10T05:51:32;100469.19;;;6.16;87.51
51245;BME280;37840;47.562;18.738;2023-04-10T05:53:58;100473.59;;;6.37;86.82
51245;BME280;37840;47.562;18.738;2023-04-10T05:56:23;100470.97;;;6.58;85.85
51245;BME280;37840;47.562;18.738;2023-04-10T05:58:50;100469.03;;;6.82;84.54
51245;BME280;37840;47.562;18.738;2023-04-10T06:01:16;100470.13;;;6.97;84.01
51245;BME280;37840;47.562;18.738;2023-04-10T06:03:41;100469.47;;;7.12;82.47
51245;BME280;37840;47.562;18.738;2023-04-10T06:06:07;100466.91;;;7.29;81.82
51245;BME280;37840;47.562;18.738;2023-04-10T06:08:33;100469.75;;;7.44;82.45
51245;BME280;37840;47.562;18.738;2023-04-10T06:10:59;100466.81;;;7.69;82.39
51245;BME280;37840;47.562;18.738;2023-04-10T06:13:25;100471.25;;;7.87;80.94
51245;BME280;37840;47.562;18.738;2023-04-10T06:15:51;100472.22;;;8.04;78.46
51245;BME280;37840;47.562;18.738;2023-04-10T06:18:17;100475.13;;;8.16;77.06
51245;BME280;37840;47.562;18.738;2023-04-10T06:20:43;100473.09;;;8.39;76.34
51245;BME280;37840;47.562;18.738;2023-04-10T06:23:09;100475.34;;;8.66;75.05
51245;BME280;37840;47.562;18.738;2023-04-10T06:25:36;100475.91;;;9.06;72.72
51245;BME280;37840;47.562;18.738;2023-04-10T06:28:01;100472.41;;;9.54;71.57
51245;BME280;37840;47.562;18.738;2023-04-10T06:30:27;100466.03;;;10.20;69.14
51245;BME280;37840;47.562;18.738;2023-04-10T06:32:53;100474.00;;;10.95;66.06
51245;BME280;37840;47.562;18.738;2023-04-10T06:35:18;100472.13;;;11.96;62.69
51245;BME280;37840;47.562;18.738;2023-04-10T06:37:45;100470.28;;;12.51;60.60
51245;BME280;37840;47.562;18.738;2023-04-10T06:40:12;100459.53;;;13.42;56.15
51245;BME280;37840;47.562;18.738;2023-04-10T06:42:38;100459.06;;;14.34;53.43
51245;BME280;37840;47.562;18.738;2023-04-10T06:45:05;100457.09;;;15.74;50.66
51245;BME280;37840;47.562;18.738;2023-04-10T06:47:31;100455.88;;;17.67;44.85
51245;BME280;37840;47.562;18.738;2023-04-10T06:49:57;100447.28;;;19.38;39.49
51245;BME280;37840;47.562;18.738;2023-04-10T06:52:22;100453.41;;;20.67;36.47
51245;BME280;37840;47.562;18.738;2023-04-10T06:54:48;100452.59;;;21.27;35.27
51245;BME280;37840;47.562;18.738;2023-04-10T06:57:14;100457.78;;;21.81;33.84
51245;BME280;37840;47.562;18.738;2023-04-10T06:59:40;100464.25;;;22.04;33.76
51245;BME280;37840;47.562;18.738;2023-04-10T07:02:06;100457.41;;;22.43;32.77
51245;BME280;37840;47.562;18.738;2023-04-10T07:04:32;100462.62;;;22.85;33.12
51245;BME280;37840;47.562;18.738;2023-04-10T07:07:00;100456.38;;;22.68;33.02
51245;BME280;37840;47.562;18.738;2023-04-10T07:09:26;100451.75;;;22.19;33.87
51245;BME280;37840;47.562;18.738;2023-04-10T07:11:52;100449.00;;;22.03;33.88
51245;BME280;37840;47.562;18.738;2023-04-10T07:14:18;100453.47;;;21.35;33.96
51245;BME280;37840;47.562;18.738;2023-04-10T07:16:43;100455.13;;;20.94;35.28
51245;BME280;37840;47.562;18.738;2023-04-10T07:19:09;100450.56;;;20.32;35.86
51245;BME280;37840;47.562;18.738;2023-04-10T07:21:35;100450.69;;;19.67;38.19
51245;BME280;37840;47.562;18.738;2023-04-10T07:24:01;100448.56;;;19.33;38.80
51245;BME280;37840;47.562;18.738;2023-04-10T07:26:27;100452.97;;;18.78;38.92
51245;BME280;37840;47.562;18.738;2023-04-10T07:28:52;100449.75;;;18.06;40.82
51245;BME280;37840;47.562;18.738;2023-04-10T07:31:18;100450.37;;;17.38;43.03
51245;BME280;37840;47.562;18.738;2023-04-10T07:33:44;100451.19;;;16.77;44.49
51245;BME280;37840;47.562;18.738;2023-04-10T07:36:11;100452.59;;;16.18;46.15
51245;BME280;37840;47.562;18.738;2023-04-10T07:38:37;100446.25;;;15.64;47.94
51245;BME280;37840;47.562;18.738;2023-04-10T07:41:03;100443.81;;;15.50;49.11
51245;BME280;37840;47.562;18.738;2023-04-10T07:43:29;100445.53;;;15.28;48.88
51245;BME280;37840;47.562;18.738;2023-04-10T07:45:54;100439.75;;;14.77;50.26
51245;BME280;37840;47.562;18.738;2023-04-10T07:48:20;100443.31;;;14.77;49.93
51245;BME280;37840;47.562;18.738;2023-04-10T07:50:46;100442.06;;;14.70;52.02
51245;BME280;37840;47.562;18.738;2023-04-10T07:53:12;100435.41;;;14.76;50.81
51245;BME280;37840;47.562;18.738;2023-04-10T07:55:38;100430.53;;;14.81;51.76
51245;BME280;37840;47.562;18.738;2023-04-10T07:58:04;100441.09;;;14.71;52.60
51245;BME280;37840;47.562;18.738;2023-04-10T08:00:31;100434.06;;;14.81;50.46
51245;BME280;37840;47.562;18.738;2023-04-10T08:02:56;100433.09;;;14.94;52.65
51245;BME280;37840;47.562;18.738;2023-04-10T08:05:22;100426.41;;;14.88;51.76
51245;BME280;37840;47.562;18.738;2023-04-10T08:07:48;100426.53;;;14.86;51.60
51245;BME280;37840;47.562;18.738;2023-04-10T08:10:13;100428.84;;;14.80;50.85
51245;BME280;37840;47.562;18.738;2023-04-10T08:12:39;100430.63;;;14.68;52.86
51245;BME280;37840;47.562;18.738;2023-04-10T08:15:05;100429.87;;;14.66;50.24
51245;BME280;37840;47.562;18.738;2023-04-10T08:17:31;100423.81;;;14.64;51.40
51245;BME280;37840;47.562;18.738;2023-04-10T08:19:57;100421.78;;;14.90;50.74
51245;BME280;37840;47.562;18.738;2023-04-10T08:22:23;100423.13;;;14.84;53.77
51245;BME280;37840;47.562;18.738;2023-04-10T08:24:48;100421.53;;;14.93;52.13
51245;BME280;37840;47.562;18.738;2023-04-10T08:27:14;100419.84;;;14.92;52.22
51245;BME280;37840;47.562;18.738;2023-04-10T08:29:41;100417.06;;;15.05;51.37
51245;BME280;37840;47.562;18.738;2023-04-10T08:32:06;100422.53;;;15.15;52.70
51245;BME280;37840;47.562;18.738;2023-04-10T08:34:32;100420.19;;;15.21;52.31
51245;BME280;37840;47.562;18.738;2023-04-10T08:36:58;100411.94;;;15.24;50.03
51245;BME280;37840;47.562;18.738;2023-04-10T08:39:24;100418.38;;;15.33;49.03
51245;BME280;37840;47.562;18.738;2023-04-10T08:41:49;100413.87;;;15.34;47.62
51245;BME280;37840;47.562;18.738;2023-04-10T08:44:15;100410.31;;;15.44;48.79
51245;BME280;37840;47.562;18.738;2023-04-10T08:46:42;100408.50;;;15.45;49.49
51245;BME280;37840;47.562;18.738;2023-04-10T08:49:09;100402.75;;;15.38;49.41
51245;BME280;37840;47.562;18.738;2023-04-10T08:51:38;100409.59;;;15.42;48.93
51245;BME280;37840;47.562;18.738;2023-04-10T08:54:06;100408.38;;;15.46;48.03
51245;BME280;37840;47.562;18.738;2023-04-10T08:56:33;100402.87;;;15.48;48.23
51245;BME280;37840;47.562;18.738;2023-04-10T08:59:00;100398.59;;;15.57;46.09
51245;BME280;37840;47.562;18.738;2023-04-10T09:01:26;100402.47;;;15.64;48.49
51245;BME280;37840;47.562;18.738;2023-04-10T09:03:52;100402.16;;;15.46;48.14
51245;BME280;37840;47.562;18.738;2023-04-10T09:06:17;100403.13;;;15.56;47.85
51245;BME280;37840;47.562;18.738;2023-04-10T09:08:43;100401.97;;;15.70;47.47
51245;BME280;37840;47.562;18.738;2023-04-10T09:11:09;100403.63;;;15.73;49.11
51245;BME280;37840;47.562;18.738;2023-04-10T09:13:36;100396.41;;;15.73;46.83
51245;BME280;37840;47.562;18.738;2023-04-10T09:16:02;100397.72;;;15.67;45.26
51245;BME280;37840;47.562;18.738;2023-04-10T09:21:10;100389.03;;;15.43;43.61
51245;BME280;37840;47.562;18.738;2023-04-10T09:23:36;100397.53;;;15.48;45.43
51245;BME280;37840;47.562;18.738;2023-04-10T09:29:06;100385.69;;;15.73;44.40
51245;BME280;37840;47.562;18.738;2023-04-10T09:31:36;100394.03;;;15.91;45.60
51245;BME280;37840;47.562;18.738;2023-04-10T09:36:34;100387.34;;;16.18;43.70
51245;BME280;37840;47.562;18.738;2023-04-10T09:39:00;100381.25;;;16.16;44.02
51245;BME280;37840;47.562;18.738;2023-04-10T09:41:25;100381.25;;;16.16;41.06
51245;BME280;37840;47.562;18.738;2023-04-10T09:46:50;100363.59;;;16.13;40.67
51245;BME280;37840;47.562;18.738;2023-04-10T09:49:16;100370.44;;;16.06;41.14
51245;BME280;37840;47.562;18.738;2023-04-10T09:51:41;100374.09;;;16.05;40.98
51245;BME280;37840;47.562;18.738;2023-04-10T09:54:08;100370.81;;;16.01;41.03
51245;BME280;37840;47.562;18.738;2023-04-10T09:56:35;100371.94;;;15.99;40.26
51245;BME280;37840;47.562;18.738;2023-04-10T09:59:01;100356.81;;;15.98;41.38
51245;BME280;37840;47.562;18.738;2023-04-10T10:01:29;100371.22;;;15.97;40.19
51245;BME280;37840;47.562;18.738;2023-04-10T10:04:01;100371.28;;;15.85;41.65
51245;BME280;37840;47.562;18.738;2023-04-10T10:06:28;100364.50;;;16.02;41.94
51245;BME280;37840;47.562;18.738;2023-04-10T10:08:57;100365.47;;;16.01;41.01
51245;BME280;37840;47.562;18.738;2023-04-10T10:11:26;100368.75;;;16.05;38.68
51245;BME280;37840;47.562;18.738;2023-04-10T10:13:52;100359.50;;;15.98;39.22
51245;BME280;37840;47.562;18.738;2023-04-10T10:18:50;100357.09;;;15.95;38.92
51245;BME280;37840;47.562;18.738;2023-04-10T10:21:18;100353.62;;;16.04;40.30
51245;BME280;37840;47.562;18.738;2023-04-10T10:23:45;100351.19;;;16.01;39.56
51245;BME280;37840;47.562;18.738;2023-04-10T10:26:12;100346.69;;;16.01;39.59
51245;BME280;37840;47.562;18.738;2023-04-10T10:28:39;100345.06;;;16.10;40.13
51245;BME280;37840;47.562;18.738;2023-04-10T10:31:05;100341.31;;;16.01;37.94
51245;BME280;37840;47.562;18.738;2023-04-10T10:33:31;100341.72;;;16.18;38.61
51245;BME280;37840;47.562;18.738;2023-04-10T10:35:58;100343.09;;;16.12;38.07
51245;BME280;37840;47.562;18.738;2023-04-10T10:38:25;100339.56;;;16.12;41.76
51245;BME280;37840;47.562;18.738;2023-04-10T10:43:30;100330.78;;;16.30;40.79
51245;BME280;37840;47.562;18.738;2023-04-10T10:48:23;100328.41;;;16.58;39.06
51245;BME280;37840;47.562;18.738;2023-04-10T10:53:38;100314.16;;;16.88;40.24
51245;BME280;37840;47.562;18.738;2023-04-10T11:01:11;100311.84;;;17.24;38.73
51245;BME280;37840;47.562;18.738;2023-04-10T11:03:37;100307.78;;;17.30;37.10
51245;BME280;37840;47.562;18.738;2023-04-10T11:06:07;100315.84;;;17.30;38.80
51245;BME280;37840;47.562;18.738;2023-04-10T11:11:05;100308.75;;;17.19;38.45
51245;BME280;37840;47.562;18.738;2023-04-10T11:13:38;100318.03;;;17.05;37.32
51245;BME280;37840;47.562;18.738;2023-04-10T11:16:04;100308.03;;;17.17;38.94
51245;BME280;37840;47.562;18.738;2023-04-10T11:21:19;100307.56;;;17.02;37.09
51245;BME280;37840;47.562;18.738;2023-04-10T11:26:59;100303.91;;;16.73;38.16
51245;BME280;37840;47.562;18.738;2023-04-10T11:29:04;100299.28;;;16.54;38.46
51245;BME280;37840;47.562;18.738;2023-04-10T11:31:32;100299.84;;;16.57;39.85
51245;BME280;37840;47.562;18.738;2023-04-10T11:34:02;100307.16;;;16.45;40.52
51245;BME280;37840;47.562;18.738;2023-04-10T11:36:28;100299.94;;;16.46;40.02
51245;BME280;37840;47.562;18.738;2023-04-10T11:38:54;100312.94;;;16.41;41.75
51245;BME280;37840;47.562;18.738;2023-04-10T11:41:20;100301.41;;;16.29;41.53
51245;BME280;37840;47.562;18.738;2023-04-10T11:43:50;100294.19;;;16.08;40.73
51245;BME280;37840;47.562;18.738;2023-04-10T11:46:16;100303.12;;;16.09;39.63
51245;BME280;37840;47.562;18.738;2023-04-10T11:48:42;100306.91;;;15.85;40.50
51245;BME280;37840;47.562;18.738;2023-04-10T11:51:09;100305.84;;;15.98;42.64
51245;BME280;37840;47.562;18.738;2023-04-10T11:53:36;100303.62;;;15.82;42.55
51245;BME280;37840;47.562;18.738;2023-04-10T11:56:03;100301.66;;;15.84;42.45
51245;BME280;37840;47.562;18.738;2023-04-10T11:58:29;100300.63;;;15.96;44.00
51245;BME280;37840;47.562;18.738;2023-04-10T12:00:58;100290.78;;;16.06;42.36
51245;BME280;37840;47.562;18.738;2023-04-10T12:03:31;100288.66;;;16.00;41.53
51245;BME280;37840;47.562;18.738;2023-04-10T12:05:57;100283.53;;;15.97;42.58
51245;BME280;37840;47.562;18.738;2023-04-10T12:08:34;100291.59;;;15.97;43.40
51245;BME280;37840;47.562;18.738;2023-04-10T12:11:01;100291.25;;;15.90;41.25
51245;BME280;37840;47.562;18.738;2023-04-10T12:13:27;100287.84;;;15.88;42.65
51245;BME280;37840;47.562;18.738;2023-04-10T12:15:53;100289.53;;;15.89;43.16
51245;BME280;37840;47.562;18.738;2023-04-10T12:18:20;100279.81;;;15.88;42.76
51245;BME280;37840;47.562;18.738;2023-04-10T12:20:46;100278.66;;;15.81;43.16
51245;BME280;37840;47.562;18.738;2023-04-10T12:23:12;100274.63;;;15.76;42.65
51245;BME280;37840;47.562;18.738;2023-04-10T12:25:38;100269.34;;;15.85;40.71
51245;BME280;37840;47.562;18.738;2023-04-10T12:28:04;100275.28;;;15.89;42.33
51245;BME280;37840;47.562;18.738;2023-04-10T12:30:29;100268.25;;;15.88;41.22
51245;BME280;37840;47.562;18.738;2023-04-10T12:32:55;100269.16;;;15.77;41.40
51245;BME280;37840;47.562;18.738;2023-04-10T12:35:37;100263.31;;;15.72;40.99
51245;BME280;37840;47.562;18.738;2023-04-10T12:38:03;100262.34;;;15.62;40.90
51245;BME280;37840;47.562;18.738;2023-04-10T12:40:29;100260.44;;;15.53;42.61
51245;BME280;37840;47.562;18.738;2023-04-10T12:42:55;100254.16;;;15.42;43.44
51245;BME280;37840;47.562;18.738;2023-04-10T12:45:39;100243.91;;;15.47;41.97
51245;BME280;37840;47.562;18.738;2023-04-10T12:48:09;100251.06;;;15.58;43.63
51245;BME280;37840;47.562;18.738;2023-04-10T12:50:44;100236.09;;;15.77;43.01
51245;BME280;37840;47.562;18.738;2023-04-10T12:53:11;100236.56;;;15.82;42.54
51245;BME280;37840;47.562;18.738;2023-04-10T12:55:38;100226.44;;;15.85;42.66
51245;BME280;37840;47.562;18.738;2023-04-10T12:58:19;100222.38;;;15.91;42.90
51245;BME280;37840;47.562;18.738;2023-04-10T13:00:45;100218.84;;;15.90;42.35
51245;BME280;37840;47.562;18.738;2023-04-10T13:03:11;100214.53;;;15.78;42.56
51245;BME280;37840;47.562;18.738;2023-04-10T13:05:37;100207.47;;;15.77;42.18
51245;BME280;37840;47.562;18.738;2023-04-10T13:08:03;100208.66;;;15.84;42.56
51245;BME280;37840;47.562;18.738;2023-04-10T13:10:29;100201.50;;;15.95;42.61
51245;BME280;37840;47.562;18.738;2023-04-10T13:12:54;100189.97;;;16.04;43.00
51245;BME280;37840;47.562;18.738;2023-04-10T13:15:21;100193.56;;;16.14;43.96
51245;BME280;37840;47.562;18.738;2023-04-10T13:17:46;100192.75;;;16.23;41.75
51245;BME280;37840;47.562;18.738;2023-04-10T13:20:12;100178.34;;;16.24;41.06
51245;BME280;37840;47.562;18.738;2023-04-10T13:22:38;100182.72;;;16.25;42.28
51245;BME280;37840;47.562;18.738;2023-04-10T13:25:04;100177.06;;;16.19;40.22
51245;BME280;37840;47.562;18.738;2023-04-10T13:27:30;100176.44;;;16.05;40.18
51245;BME280;37840;47.562;18.738;2023-04-10T13:29:55;100176.44;;;16.05;42.38
51245;BME280;37840;47.562;18.738;2023-04-10T13:32:21;100174.53;;;16.17;42.30
51245;BME280;37840;47.562;18.738;2023-04-10T13:34:47;100171.66;;;16.09;41.21